createdAt,value
2023-01-13T00:01:46.307Z,6.10
2023-01-13T00:04:15.470Z,6.10
2023-01-13T00:06:44.800Z,6.10
2023-01-13T00:09:15.411Z,6.10
2023-01-13T00:11:45.108Z,6.10
2023-01-13T00:14:14.518Z,6.10
2023-01-13T00:16:43.658Z,6.10
2023-01-13T00:19:12.839Z,6.10
2023-01-13T00:21:42.125Z,6.10
2023-01-13T00:24:15.921Z,6.10
2023-01-13T00:26:46.754Z,6.10
2023-01-13T00:29:16.019Z,6.00
2023-01-13T00:31:45.177Z,6.00
2023-01-13T00:34:14.629Z,6.00
2023-01-13T00:36:44.069Z,6.00
2023-01-13T00:39:13.267Z,6.00
2023-01-13T00:41:59.683Z,5.90
2023-01-13T00:44:30.320Z,5.80
2023-01-13T00:46:59.748Z,5.80
2023-01-13T00:49:29.009Z,5.80
2023-01-13T00:51:58.254Z,5.80
2023-01-13T00:54:27.727Z,5.90
2023-01-13T00:56:56.872Z,5.90
2023-01-13T00:59:26.163Z,5.90
2023-01-13T01:01:57.270Z,5.90
2023-01-13T01:04:26.655Z,5.90
2023-01-13T01:06:55.925Z,5.90
2023-01-13T01:09:34.089Z,5.80
2023-01-13T01:12:04.689Z,5.70
2023-01-13T01:14:34.142Z,5.50
2023-01-13T01:17:04.912Z,5.50
2023-01-13T01:19:37.865Z,5.50
2023-01-13T01:22:07.156Z,5.50
2023-01-13T01:24:41.284Z,5.50
2023-01-13T01:27:10.598Z,5.60
2023-01-13T01:29:39.983Z,5.50
2023-01-13T01:32:10.905Z,5.50
2023-01-13T01:34:40.704Z,5.50
2023-01-13T01:37:10.284Z,5.40
2023-01-13T01:39:39.639Z,5.40
2023-01-13T01:42:26.142Z,5.40
2023-01-13T01:45:01.841Z,5.40
2023-01-13T01:47:34.247Z,5.40
2023-01-13T01:50:04.797Z,5.50
2023-01-13T01:52:36.896Z,5.50
2023-01-13T01:55:10.774Z,5.40
2023-01-13T01:57:44.807Z,5.50
2023-01-13T02:00:15.419Z,5.40
2023-01-13T02:02:48.177Z,5.40
2023-01-13T02:05:17.761Z,5.30
2023-01-13T02:07:51.090Z,5.20
2023-01-13T02:13:07.143Z,5.30
2023-01-13T02:15:44.548Z,5.20
2023-01-13T02:18:38.780Z,5.20
2023-01-13T02:21:48.109Z,5.20
2023-01-13T02:24:56.748Z,5.20
2023-01-13T02:28:02.009Z,5.20
2023-01-13T02:31:03.531Z,5.20
2023-01-13T02:33:47.983Z,5.20
2023-01-13T02:36:26.242Z,5.30
2023-01-13T02:39:03.190Z,5.20
2023-01-13T02:41:57.341Z,5.10
2023-01-13T02:44:37.474Z,4.90
2023-01-13T02:47:12.489Z,4.80
2023-01-13T02:49:45.523Z,4.80
2023-01-13T02:52:19.276Z,4.90
2023-01-13T02:54:54.754Z,4.90
2023-01-13T02:57:25.841Z,5.00
2023-01-13T02:59:57.499Z,5.00
2023-01-13T03:02:28.509Z,5.10
2023-01-13T03:04:58.986Z,5.10
2023-01-13T03:08:15.927Z,5.20
2023-01-13T03:10:56.121Z,5.30
2023-01-13T03:13:54.786Z,5.30
2023-01-13T03:16:31.272Z,5.40
2023-01-13T03:19:15.392Z,5.30
2023-01-13T03:21:53.385Z,5.40
2023-01-13T03:24:27.981Z,5.40
2023-01-13T03:27:03.039Z,5.40
2023-01-13T03:29:38.810Z,5.50
2023-01-13T03:32:13.626Z,5.50
2023-01-13T03:34:49.178Z,5.50
2023-01-13T03:37:22.295Z,5.50
2023-01-13T03:39:54.937Z,5.60
2023-01-13T03:42:26.623Z,5.50
2023-01-13T03:44:59.577Z,5.60
2023-01-13T03:47:35.077Z,5.60
2023-01-13T03:50:09.895Z,5.50
2023-01-13T03:52:42.240Z,5.60
2023-01-13T03:55:16.080Z,5.60
2023-01-13T03:57:51.308Z,5.50
2023-01-13T04:00:21.659Z,5.50
2023-01-13T04:02:56.513Z,5.50
2023-01-13T04:05:27.778Z,5.30
2023-01-13T04:08:04.278Z,5.30
2023-01-13T04:10:37.803Z,5.30
2023-01-13T04:13:10.953Z,5.30
2023-01-13T04:15:42.552Z,5.40
2023-01-13T04:18:26.833Z,5.40
2023-01-13T04:21:00.019Z,5.50
2023-01-13T04:23:30.157Z,5.50
2023-01-13T04:25:59.326Z,5.60
2023-01-13T04:28:28.656Z,5.60
2023-01-13T04:30:58.308Z,5.60
2023-01-13T04:33:27.919Z,5.60
2023-01-13T04:35:58.606Z,5.60
2023-01-13T04:38:27.651Z,5.70
2023-01-13T04:40:56.925Z,5.60
2023-01-13T04:43:26.102Z,5.60
2023-01-13T04:45:55.546Z,5.60
2023-01-13T04:48:24.673Z,5.60
2023-01-13T04:50:53.848Z,5.70
2023-01-13T04:53:24.383Z,5.60
2023-01-13T04:55:53.654Z,5.60
2023-01-13T04:58:23.110Z,5.70
2023-01-13T05:00:52.808Z,5.70
2023-01-13T05:03:21.924Z,5.70
2023-01-13T05:05:53.846Z,5.70
2023-01-13T05:08:24.385Z,5.70
2023-01-13T05:10:53.478Z,5.60
2023-01-13T05:13:39.500Z,5.70
2023-01-13T05:16:29.508Z,5.60
2023-01-13T05:18:58.750Z,5.60
2023-01-13T05:21:45.395Z,5.50
2023-01-13T05:24:33.533Z,5.50
2023-01-13T05:27:02.756Z,5.50
2023-01-13T05:29:31.984Z,5.60
2023-01-13T05:32:03.024Z,5.60
2023-01-13T05:34:33.964Z,5.50
2023-01-13T05:37:03.765Z,5.60
2023-01-13T05:39:55.574Z,5.50
2023-01-13T05:42:41.753Z,5.50
2023-01-13T05:45:12.162Z,5.50
2023-01-13T05:47:41.467Z,5.50
2023-01-13T05:50:11.969Z,5.50
2023-01-13T05:52:41.287Z,5.60
2023-01-13T05:55:13.046Z,5.60
2023-01-13T05:57:42.249Z,5.60
2023-01-13T06:00:12.481Z,5.60
2023-01-13T06:02:41.574Z,5.60
2023-01-13T06:05:13.486Z,5.50
2023-01-13T06:07:43.100Z,5.50
2023-01-13T06:10:14.329Z,5.50
2023-01-13T06:12:44.675Z,5.50
2023-01-13T06:15:14.077Z,5.50
2023-01-13T06:17:43.209Z,5.40
2023-01-13T06:20:13.592Z,5.50
2023-01-13T06:22:44.913Z,5.50
2023-01-13T06:25:23.296Z,5.40
2023-01-13T06:27:54.003Z,5.50
2023-01-13T06:30:23.503Z,5.50
2023-01-13T06:32:56.972Z,5.40
2023-01-13T06:35:30.894Z,5.50
2023-01-13T06:38:03.203Z,5.50
2023-01-13T06:40:34.071Z,5.50
2023-01-13T06:43:17.488Z,5.40
2023-01-13T06:45:52.001Z,5.40
2023-01-13T06:48:24.405Z,5.40
2023-01-13T06:50:53.714Z,5.30
2023-01-13T06:53:22.948Z,5.30
2023-01-13T06:55:53.753Z,5.30
2023-01-13T06:58:23.048Z,5.30
2023-01-13T07:00:53.224Z,5.30
2023-01-13T07:03:24.308Z,5.30
2023-01-13T07:05:54.993Z,5.30
2023-01-13T07:08:25.134Z,5.20
2023-01-13T07:10:56.126Z,5.30
2023-01-13T07:13:42.607Z,5.30
2023-01-13T07:16:12.007Z,5.30
2023-01-13T07:18:41.544Z,5.30
2023-01-13T07:21:12.911Z,5.40
2023-01-13T07:23:43.321Z,5.40
2023-01-13T07:26:16.472Z,5.50
2023-01-13T07:28:46.256Z,5.40
2023-01-13T07:31:17.920Z,5.40
2023-01-13T07:33:47.343Z,5.40
2023-01-13T07:36:17.472Z,5.40
2023-01-13T07:38:46.699Z,5.40
2023-01-13T07:41:35.412Z,5.50
2023-01-13T07:44:07.074Z,5.50
2023-01-13T07:46:36.377Z,5.50
2023-01-13T07:49:05.943Z,5.40
2023-01-13T07:51:38.610Z,5.30
2023-01-13T07:54:08.664Z,5.40
2023-01-13T07:56:39.455Z,5.40
2023-01-13T07:59:08.654Z,5.40
2023-01-13T08:01:38.118Z,5.30
2023-01-13T08:04:07.608Z,5.40
2023-01-13T08:06:37.610Z,5.40
2023-01-13T08:09:06.755Z,5.60
2023-01-13T08:11:36.176Z,5.50
2023-01-13T08:14:06.896Z,5.40
2023-01-13T08:16:37.881Z,5.50
2023-01-13T08:19:06.949Z,5.50
2023-01-13T08:21:36.411Z,5.60
2023-01-13T08:24:05.812Z,5.60
2023-01-13T08:26:34.992Z,5.60
2023-01-13T08:29:04.348Z,5.60
2023-01-13T08:31:35.086Z,5.60
2023-01-13T08:34:04.379Z,5.70
2023-01-13T08:36:33.793Z,5.70
2023-01-13T08:39:03.289Z,5.70
2023-01-13T08:41:51.616Z,5.70
2023-01-13T08:44:27.584Z,5.80
2023-01-13T08:46:58.535Z,5.80
2023-01-13T08:49:29.355Z,5.70
2023-01-13T08:52:01.429Z,5.80
2023-01-13T08:54:30.805Z,5.80
2023-01-13T08:57:00.604Z,5.80
2023-01-13T08:59:31.241Z,5.90
2023-01-13T09:02:04.116Z,5.90
2023-01-13T09:04:34.424Z,5.90
2023-01-13T09:07:03.543Z,5.90
2023-01-13T09:09:32.857Z,5.90
2023-01-13T09:12:19.486Z,5.90
2023-01-13T09:14:48.835Z,5.90
2023-01-13T09:17:20.163Z,6.00
2023-01-13T09:19:49.444Z,6.00
2023-01-13T09:22:22.247Z,6.00
2023-01-13T09:24:52.519Z,6.10
2023-01-13T09:27:22.616Z,6.20
2023-01-13T09:29:52.272Z,6.10
2023-01-13T09:32:22.985Z,6.20
2023-01-13T09:35:03.376Z,6.20
2023-01-13T09:37:34.514Z,6.10
2023-01-13T09:40:04.111Z,6.20
2023-01-13T09:43:01.335Z,6.30
2023-01-13T09:45:38.645Z,6.30
2023-01-13T09:48:17.916Z,6.40
2023-01-13T09:51:05.287Z,6.30
2023-01-13T09:53:39.099Z,6.40
2023-01-13T09:56:11.163Z,6.40
2023-01-13T09:58:40.497Z,6.40
2023-01-13T10:01:22.884Z,6.60
2023-01-13T10:03:54.526Z,6.60
2023-01-13T10:06:32.584Z,6.70
2023-01-13T10:09:02.038Z,6.70
2023-01-13T10:11:53.064Z,6.60
2023-01-13T10:14:30.165Z,6.70
2023-01-13T10:17:06.308Z,6.70
2023-01-13T10:19:42.313Z,6.70
2023-01-13T10:22:45.512Z,6.60
2023-01-13T10:25:28.013Z,6.70
2023-01-13T10:28:04.815Z,6.60
2023-01-13T10:30:40.388Z,6.60
2023-01-13T10:33:14.716Z,6.80
2023-01-13T10:35:58.147Z,6.80
2023-01-13T10:38:30.049Z,6.80
2023-01-13T10:41:00.920Z,6.80
2023-01-13T10:43:31.526Z,6.90
2023-01-13T10:46:04.109Z,6.90
2023-01-13T10:48:42.546Z,6.90
2023-01-13T10:51:25.412Z,7.00
2023-01-13T10:54:01.369Z,6.90
2023-01-13T10:56:33.778Z,7.00
2023-01-13T10:59:18.276Z,7.00
2023-01-13T11:02:03.796Z,7.10
2023-01-13T11:04:38.276Z,7.00
2023-01-13T11:07:25.778Z,7.10
2023-01-13T11:10:07.260Z,7.10
2023-01-13T11:12:42.134Z,7.30
2023-01-13T11:15:17.307Z,7.00
2023-01-13T11:17:52.218Z,7.10
2023-01-13T11:20:30.175Z,7.20
2023-01-13T11:23:03.851Z,7.30
2023-01-13T11:25:42.959Z,7.30
2023-01-13T11:28:39.386Z,7.40
2023-01-13T11:31:16.989Z,7.40
2023-01-13T11:33:54.177Z,7.50
2023-01-13T11:36:27.334Z,7.40
2023-01-13T11:39:01.279Z,7.50
2023-01-13T11:41:42.350Z,7.50
2023-01-13T11:44:22.071Z,7.50
2023-01-13T11:46:52.884Z,7.50
2023-01-13T11:49:27.765Z,7.40
2023-01-13T11:52:06.427Z,7.30
2023-01-13T11:55:03.316Z,7.40
2023-01-13T11:57:49.934Z,7.40
2023-01-13T12:00:40.583Z,7.40
2023-01-13T12:03:27.283Z,7.40
2023-01-13T12:06:07.770Z,7.50
2023-01-13T12:08:56.682Z,7.40
2023-01-13T12:11:33.713Z,7.40
2023-01-13T12:14:16.622Z,7.30
2023-01-13T12:16:51.464Z,7.50
2023-01-13T12:19:28.400Z,7.50
2023-01-13T12:22:17.479Z,7.60
2023-01-13T12:24:55.174Z,7.50
2023-01-13T12:27:37.154Z,7.60
2023-01-13T12:30:24.082Z,7.60
2023-01-13T12:32:55.486Z,7.60
2023-01-13T12:35:39.288Z,7.60
2023-01-13T12:38:15.742Z,7.60
2023-01-13T12:40:56.135Z,7.60
2023-01-13T12:43:44.311Z,7.60
2023-01-13T12:46:47.145Z,7.70
2023-01-13T12:49:33.854Z,7.70
2023-01-13T12:52:18.769Z,7.70
2023-01-13T12:55:11.706Z,7.60
2023-01-13T12:57:41.168Z,7.60
2023-01-13T13:00:21.194Z,7.50
2023-01-13T13:03:23.623Z,7.50
2023-01-13T13:06:15.958Z,7.50
2023-01-13T13:09:04.575Z,7.50
2023-01-13T13:11:59.267Z,7.50
2023-01-13T13:15:04.651Z,7.50
2023-01-13T13:18:09.042Z,7.40
2023-01-13T13:21:04.683Z,7.40
2023-01-13T13:24:03.349Z,7.40
2023-01-13T13:26:38.898Z,7.40
2023-01-13T13:29:33.182Z,7.30
2023-01-13T13:32:21.265Z,7.50
2023-01-13T13:35:00.511Z,7.50
2023-01-13T13:37:56.540Z,7.50
2023-01-13T13:40:43.845Z,7.50
2023-01-13T13:43:33.826Z,7.50
2023-01-13T13:46:20.261Z,7.60
2023-01-13T13:48:54.257Z,7.50
2023-01-13T13:51:32.710Z,7.40
2023-01-13T13:54:03.262Z,7.30
2023-01-13T13:56:41.170Z,7.40
2023-01-13T13:59:14.968Z,7.50
2023-01-13T14:01:47.865Z,7.50
2023-01-13T14:04:20.679Z,7.50
2023-01-13T14:06:56.744Z,7.50
2023-01-13T14:09:29.748Z,7.40
2023-01-13T14:12:01.676Z,7.40
2023-01-13T14:14:31.079Z,7.40
2023-01-13T14:17:00.481Z,7.40
2023-01-13T14:19:35.793Z,7.30
2023-01-13T14:22:18.170Z,7.30
2023-01-13T14:24:55.906Z,7.40
2023-01-13T14:27:27.855Z,7.40
2023-01-13T14:29:59.644Z,7.30
2023-01-13T14:32:35.106Z,7.40
2023-01-13T14:35:07.174Z,7.50
2023-01-13T14:37:41.295Z,7.40
2023-01-13T14:40:47.320Z,7.40
2023-01-13T14:43:22.553Z,7.40
2023-01-13T14:45:59.657Z,7.30
2023-01-13T14:48:36.291Z,7.30
2023-01-13T14:51:10.022Z,7.40
2023-01-13T14:53:44.134Z,7.30
2023-01-13T14:56:47.686Z,7.20
2023-01-13T14:59:44.444Z,7.20
2023-01-13T15:02:45.371Z,7.20
2023-01-13T15:05:47.767Z,7.30
2023-01-13T15:08:34.615Z,7.20
2023-01-13T15:11:08.086Z,7.20
2023-01-13T15:13:53.157Z,7.30
2023-01-13T15:16:25.370Z,7.20
2023-01-13T15:18:54.855Z,7.20
2023-01-13T15:21:25.426Z,7.30
2023-01-13T15:23:54.592Z,7.20
2023-01-13T15:26:30.303Z,7.30
2023-01-13T15:29:01.236Z,7.20
2023-01-13T15:31:30.836Z,7.30
2023-01-13T15:34:01.101Z,7.20
2023-01-13T15:36:32.748Z,7.30
2023-01-13T15:39:03.096Z,7.20
2023-01-13T15:41:51.032Z,7.20
2023-01-13T15:44:39.337Z,7.20
2023-01-13T15:47:14.598Z,7.20
2023-01-13T15:49:46.426Z,7.30
2023-01-13T15:52:21.833Z,7.30
2023-01-13T15:54:51.358Z,7.30
2023-01-13T15:57:26.417Z,7.40
2023-01-13T16:00:00.732Z,7.40
2023-01-13T16:02:31.558Z,7.30
2023-01-13T16:05:01.005Z,7.30
2023-01-13T16:07:31.235Z,7.40
2023-01-13T16:10:02.284Z,7.40
2023-01-13T16:12:35.098Z,7.40
2023-01-13T16:15:04.181Z,7.40
2023-01-13T16:17:35.389Z,7.40
2023-01-13T16:20:05.183Z,7.40
2023-01-13T16:22:35.665Z,7.40
2023-01-13T16:25:05.852Z,7.30
2023-01-13T16:27:37.035Z,7.30
2023-01-13T16:30:06.896Z,7.40
2023-01-13T16:32:36.080Z,7.40
2023-01-13T16:35:06.009Z,7.30
2023-01-13T16:37:39.665Z,7.40
2023-01-13T16:40:23.112Z,7.30
2023-01-13T16:42:54.769Z,7.30
2023-01-13T16:45:25.947Z,7.30
2023-01-13T16:47:55.172Z,7.40
2023-01-13T16:50:42.269Z,7.40
2023-01-13T16:53:13.037Z,7.40
2023-01-13T16:55:44.933Z,7.30
2023-01-13T16:58:22.351Z,7.40
2023-01-13T17:00:54.380Z,7.40
2023-01-13T17:03:23.769Z,7.40
2023-01-13T17:05:54.231Z,7.50
2023-01-13T17:08:23.681Z,7.50
2023-01-13T17:10:54.327Z,7.50
2023-01-13T17:13:25.682Z,7.40
2023-01-13T17:15:54.894Z,7.40
2023-01-13T17:18:24.373Z,7.40
2023-01-13T17:20:53.947Z,7.50
2023-01-13T17:23:23.055Z,7.50
2023-01-13T17:25:54.951Z,7.50
2023-01-13T17:28:25.888Z,7.40
2023-01-13T17:30:55.478Z,7.50
2023-01-13T17:33:25.218Z,7.40
2023-01-13T17:35:55.386Z,7.40
2023-01-13T17:38:24.784Z,7.40
2023-01-13T17:40:54.962Z,7.50
2023-01-13T17:43:26.005Z,7.40
2023-01-13T17:45:55.356Z,7.50
2023-01-13T17:48:24.775Z,7.60
2023-01-13T17:50:56.306Z,7.60
2023-01-13T17:53:25.507Z,7.60
2023-01-13T17:55:56.929Z,7.50
2023-01-13T17:58:27.794Z,7.50
2023-01-13T18:00:56.807Z,7.50
2023-01-13T18:03:26.415Z,7.50
2023-01-13T18:05:55.788Z,7.40
2023-01-13T18:11:31.009Z,7.40
2023-01-13T18:14:02.319Z,7.50
2023-01-13T18:16:33.716Z,7.50
2023-01-13T18:19:16.604Z,7.50
2023-01-13T18:22:03.354Z,7.40
2023-01-13T18:24:50.702Z,7.40
2023-01-13T18:27:25.586Z,7.30
2023-01-13T18:30:00.396Z,7.40
2023-01-13T18:32:33.227Z,7.40
2023-01-13T18:35:06.936Z,7.40
2023-01-13T18:37:42.671Z,7.40
2023-01-13T18:40:14.679Z,7.40
2023-01-13T18:42:59.472Z,7.40
2023-01-13T18:45:32.260Z,7.50
2023-01-13T18:48:04.365Z,7.40
2023-01-13T18:50:36.811Z,7.40
2023-01-13T18:53:07.521Z,7.40
2023-01-13T18:55:39.570Z,7.40
2023-01-13T18:58:09.477Z,7.50
2023-01-13T19:00:40.419Z,7.40
2023-01-13T19:03:13.224Z,7.40
2023-01-13T19:05:42.428Z,7.50
2023-01-13T19:08:11.911Z,7.50
2023-01-13T19:10:42.977Z,7.60
2023-01-13T19:13:17.183Z,7.60
2023-01-13T19:15:48.460Z,7.50
2023-01-13T19:18:18.193Z,7.60
2023-01-13T19:20:48.183Z,7.60
2023-01-13T19:23:18.918Z,7.50
2023-01-13T19:25:53.922Z,7.60
2023-01-13T19:28:37.253Z,7.60
2023-01-13T19:31:16.839Z,7.60
2023-01-13T19:33:46.664Z,7.60
2023-01-13T19:36:16.793Z,7.60
2023-01-13T19:38:46.528Z,7.60
2023-01-13T19:41:29.526Z,7.40
2023-01-13T19:44:27.631Z,7.40
2023-01-13T19:47:01.367Z,7.40
2023-01-13T19:49:32.892Z,7.50
2023-01-13T19:52:03.573Z,7.50
2023-01-13T19:54:34.664Z,7.50
2023-01-13T19:57:06.612Z,7.50
2023-01-13T19:59:49.887Z,7.60
2023-01-13T20:02:32.554Z,7.60
2023-01-13T20:05:08.437Z,7.60
2023-01-13T20:07:37.980Z,7.60
2023-01-13T20:10:14.016Z,7.60
2023-01-13T20:12:46.814Z,7.60
2023-01-13T20:15:16.891Z,7.60
2023-01-13T20:17:48.475Z,7.60
2023-01-13T20:20:21.797Z,7.60
2023-01-13T20:22:52.997Z,7.60
2023-01-13T20:25:23.498Z,7.60
2023-01-13T20:27:54.477Z,7.50
2023-01-13T20:30:33.014Z,7.60
2023-01-13T20:33:04.975Z,7.60
2023-01-13T20:35:36.503Z,7.70
2023-01-13T20:38:09.018Z,7.60
2023-01-13T20:40:40.181Z,7.70
2023-01-13T20:43:09.288Z,7.70
2023-01-13T20:45:41.254Z,7.70
2023-01-13T20:48:13.252Z,7.70
2023-01-13T20:50:43.766Z,7.70
2023-01-13T20:53:13.354Z,7.70
2023-01-13T20:55:45.104Z,7.70
2023-01-13T20:58:16.176Z,7.80
2023-01-13T21:00:46.539Z,7.80
2023-01-13T21:03:20.696Z,7.80
2023-01-13T21:05:52.464Z,7.70
2023-01-13T21:08:22.611Z,7.80
2023-01-13T21:10:52.382Z,7.70
2023-01-13T21:13:39.145Z,7.80
2023-01-13T21:16:12.097Z,7.80
2023-01-13T21:19:00.094Z,7.80
2023-01-13T21:21:29.585Z,7.90
2023-01-13T21:23:59.439Z,7.90
2023-01-13T21:26:28.737Z,7.90
2023-01-13T21:28:59.656Z,8.00
2023-01-13T21:31:29.569Z,8.00
2023-01-13T21:34:01.539Z,8.00
2023-01-13T21:36:31.057Z,8.10
2023-01-13T21:39:01.341Z,8.10
2023-01-13T21:41:47.874Z,8.10
2023-01-13T21:44:34.996Z,8.10
2023-01-13T21:47:21.497Z,8.10
2023-01-13T21:49:52.282Z,8.10
2023-01-13T21:52:22.337Z,8.10
2023-01-13T21:55:09.677Z,8.20
2023-01-13T21:57:39.786Z,8.10
2023-01-13T22:00:11.644Z,8.00
2023-01-13T22:02:41.128Z,8.10
2023-01-13T22:05:13.848Z,8.10
2023-01-13T22:07:44.057Z,8.10
2023-01-13T22:10:15.704Z,8.10
2023-01-13T22:12:45.299Z,8.20
2023-01-13T22:15:15.549Z,8.20
2023-01-13T22:17:47.771Z,8.20
2023-01-13T22:20:21.401Z,8.20
2023-01-13T22:22:51.045Z,8.20
2023-01-13T22:25:20.891Z,8.30
2023-01-13T22:27:50.981Z,8.20
2023-01-13T22:30:22.792Z,8.30
2023-01-13T22:32:51.899Z,8.30
2023-01-13T22:35:22.958Z,8.40
2023-01-13T22:37:52.607Z,8.30
2023-01-13T22:40:21.787Z,8.30
2023-01-13T22:42:51.299Z,8.30
2023-01-13T22:45:20.608Z,8.30
2023-01-13T22:47:50.262Z,8.20
2023-01-13T22:50:23.268Z,8.20
2023-01-13T22:52:52.490Z,8.20
2023-01-13T22:55:22.274Z,8.20
2023-01-13T22:57:51.365Z,8.10
2023-01-13T23:00:25.584Z,8.00
2023-01-13T23:02:54.799Z,8.00
2023-01-13T23:05:25.332Z,7.90
2023-01-13T23:07:55.380Z,7.90
2023-01-13T23:10:25.620Z,8.00
2023-01-13T23:12:57.850Z,8.10
2023-01-13T23:15:27.167Z,8.10
2023-01-13T23:17:56.345Z,8.10
2023-01-13T23:20:27.803Z,8.20
2023-01-13T23:22:56.843Z,8.20
2023-01-13T23:25:27.025Z,8.10
2023-01-13T23:27:58.403Z,8.00
2023-01-13T23:30:28.379Z,8.00
2023-01-13T23:32:57.558Z,7.90
2023-01-13T23:35:28.547Z,7.90
2023-01-13T23:37:57.700Z,7.90
2023-01-13T23:40:28.102Z,7.80
2023-01-13T23:42:59.320Z,7.70
2023-01-13T23:45:28.580Z,7.60
2023-01-13T23:47:58.107Z,7.50
2023-01-13T23:50:28.985Z,7.40
2023-01-13T23:52:58.739Z,7.30
2023-01-13T23:55:28.734Z,7.30
2023-01-13T23:57:57.794Z,7.20
